createdAt,value
2023-02-08T00:01:28.341Z,74.84
2023-02-08T00:03:56.705Z,74.60
2023-02-08T00:06:25.102Z,74.48
2023-02-08T00:08:54.675Z,74.19
2023-02-08T00:11:23.049Z,74.08
2023-02-08T00:13:51.336Z,73.90
2023-02-08T00:16:20.189Z,73.94
2023-02-08T00:18:48.562Z,74.18
2023-02-08T00:21:19.418Z,73.75
2023-02-08T00:23:48.279Z,73.63
2023-02-08T00:26:18.244Z,73.76
2023-02-08T00:28:47.217Z,73.22
2023-02-08T00:31:18.661Z,72.99
2023-02-08T00:33:47.030Z,73.10
2023-02-08T00:36:15.416Z,73.25
2023-02-08T00:38:44.196Z,72.92
2023-02-08T00:41:12.512Z,73.77
2023-02-08T00:43:42.195Z,74.46
2023-02-08T00:46:11.178Z,74.36
2023-02-08T00:48:39.592Z,74.15
2023-02-08T00:51:11.858Z,74.74
2023-02-08T00:53:43.132Z,75.54
2023-02-08T00:56:13.789Z,75.84
2023-02-08T00:58:44.281Z,76.02
2023-02-08T01:01:12.758Z,75.85
2023-02-08T01:03:43.071Z,75.64
2023-02-08T01:06:16.805Z,75.12
2023-02-08T01:08:46.568Z,75.15
2023-02-08T01:11:18.404Z,75.05
2023-02-08T01:13:48.309Z,74.65
2023-02-08T01:16:19.647Z,74.72
2023-02-08T01:18:50.890Z,74.72
2023-02-08T01:21:23.518Z,74.27
2023-02-08T01:23:52.472Z,74.21
2023-02-08T01:26:23.009Z,73.92
2023-02-08T01:28:53.255Z,74.28
2023-02-08T01:31:24.542Z,73.90
2023-02-08T01:33:53.729Z,73.70
2023-02-08T01:36:23.155Z,73.75
2023-02-08T01:38:51.429Z,73.61
2023-02-08T01:41:23.095Z,73.70
2023-02-08T01:44:10.583Z,73.74
2023-02-08T01:46:40.890Z,73.04
2023-02-08T01:49:14.341Z,73.12
2023-02-08T01:51:46.617Z,73.20
2023-02-08T01:54:18.578Z,73.27
2023-02-08T01:56:49.013Z,72.98
2023-02-08T01:59:24.091Z,72.96
2023-02-08T02:01:55.757Z,73.07
2023-02-08T02:04:24.472Z,72.96
2023-02-08T02:06:58.266Z,72.64
2023-02-08T02:09:32.415Z,72.74
2023-02-08T02:12:02.370Z,72.72
2023-02-08T02:14:32.274Z,72.94
2023-02-08T02:17:01.766Z,72.93
2023-02-08T02:19:40.547Z,72.74
2023-02-08T02:22:34.938Z,73.18
2023-02-08T02:25:38.648Z,72.77
2023-02-08T02:28:48.252Z,72.74
2023-02-08T02:31:55.564Z,72.83
2023-02-08T02:34:33.756Z,72.85
2023-02-08T02:37:14.460Z,73.07
2023-02-08T02:39:52.169Z,72.78
2023-02-08T02:42:49.694Z,72.68
2023-02-08T02:45:34.913Z,72.68
2023-02-08T02:48:13.455Z,72.47
2023-02-08T02:50:46.779Z,72.71
2023-02-08T02:53:23.940Z,72.47
2023-02-08T02:55:59.521Z,72.82
2023-02-08T02:58:30.008Z,72.93
2023-02-08T03:00:59.685Z,73.34
2023-02-08T03:03:34.192Z,73.49
2023-02-08T03:06:06.388Z,73.43
2023-02-08T03:09:20.079Z,73.01
2023-02-08T03:11:57.700Z,72.80
2023-02-08T03:14:36.036Z,73.13
2023-02-08T03:17:24.089Z,73.24
2023-02-08T03:20:06.309Z,72.96
2023-02-08T03:22:46.807Z,72.92
2023-02-08T03:25:20.207Z,72.91
2023-02-08T03:27:57.815Z,72.80
2023-02-08T03:30:34.842Z,72.77
2023-02-08T03:33:08.204Z,73.07
2023-02-08T03:35:43.353Z,73.09
2023-02-08T03:38:17.258Z,72.97
2023-02-08T03:40:49.417Z,73.24
2023-02-08T03:43:24.696Z,73.21
2023-02-08T03:45:58.878Z,73.41
2023-02-08T03:48:29.733Z,73.18
2023-02-08T03:51:02.011Z,73.16
2023-02-08T03:53:38.193Z,73.29
2023-02-08T03:56:11.212Z,73.06
2023-02-08T03:58:46.485Z,73.28
2023-02-08T04:01:21.323Z,73.49
2023-02-08T04:03:53.462Z,73.21
2023-02-08T04:06:23.945Z,73.32
2023-02-08T04:08:52.902Z,73.07
2023-02-08T04:11:21.381Z,73.30
2023-02-08T04:13:49.620Z,73.27
2023-02-08T04:16:17.883Z,73.06
2023-02-08T04:18:46.086Z,72.95
2023-02-08T04:21:14.460Z,73.30
2023-02-08T04:23:44.114Z,73.66
2023-02-08T04:26:12.421Z,72.99
2023-02-08T04:28:40.700Z,73.46
2023-02-08T04:31:09.078Z,73.01
2023-02-08T04:33:37.380Z,73.07
2023-02-08T04:36:06.612Z,73.76
2023-02-08T04:38:34.830Z,73.55
2023-02-08T04:41:04.599Z,73.87
2023-02-08T04:43:32.954Z,73.78
2023-02-08T04:46:01.230Z,74.13
2023-02-08T04:48:29.574Z,74.31
2023-02-08T04:50:58.624Z,75.01
2023-02-08T04:53:27.360Z,74.80
2023-02-08T04:55:55.667Z,75.35
2023-02-08T04:58:25.480Z,76.32
2023-02-08T05:00:53.804Z,76.52
2023-02-08T05:03:22.067Z,76.95
2023-02-08T05:05:58.745Z,77.50
2023-02-08T05:08:27.515Z,77.86
2023-02-08T05:10:56.087Z,78.36
2023-02-08T05:13:25.763Z,78.58
2023-02-08T05:15:54.068Z,79.13
2023-02-08T05:18:22.389Z,79.61
2023-02-08T05:20:56.699Z,80.24
2023-02-08T05:23:25.431Z,80.47
2023-02-08T05:25:53.811Z,80.17
2023-02-08T05:28:22.134Z,79.97
2023-02-08T05:30:52.072Z,79.37
2023-02-08T05:33:20.415Z,79.06
2023-02-08T05:35:48.745Z,78.71
2023-02-08T05:38:16.980Z,78.55
2023-02-08T05:40:45.255Z,78.43
2023-02-08T05:43:13.512Z,78.09
2023-02-08T05:45:41.761Z,77.67
2023-02-08T05:48:11.379Z,76.98
2023-02-08T05:50:39.916Z,77.50
2023-02-08T05:53:11.501Z,77.59
2023-02-08T05:55:39.952Z,77.57
2023-02-08T05:58:08.216Z,77.47
2023-02-08T06:00:36.541Z,77.84
2023-02-08T06:03:04.895Z,77.17
2023-02-08T06:05:34.612Z,77.92
2023-02-08T06:08:03.037Z,78.40
2023-02-08T06:10:31.296Z,79.22
2023-02-08T06:12:59.677Z,79.09
2023-02-08T06:15:28.008Z,78.68
2023-02-08T06:17:56.530Z,78.41
2023-02-08T06:20:25.186Z,78.28
2023-02-08T06:22:55.996Z,77.76
2023-02-08T06:25:24.299Z,77.53
2023-02-08T06:27:52.633Z,77.32
2023-02-08T06:30:21.255Z,76.78
2023-02-08T06:32:49.506Z,76.59
2023-02-08T06:35:18.060Z,76.44
2023-02-08T06:37:46.332Z,76.37
2023-02-08T06:40:16.129Z,76.40
2023-02-08T06:42:44.438Z,76.40
2023-02-08T06:45:13.712Z,76.24
2023-02-08T06:47:42.280Z,76.12
2023-02-08T06:50:11.431Z,75.38
2023-02-08T06:52:39.734Z,75.42
2023-02-08T06:55:08.748Z,76.28
2023-02-08T06:57:38.466Z,76.77
2023-02-08T07:00:08.204Z,77.32
2023-02-08T07:02:36.541Z,76.95
2023-02-08T07:05:04.953Z,76.87
2023-02-08T07:07:33.297Z,76.48
2023-02-08T07:10:01.579Z,76.33
2023-02-08T07:12:29.799Z,76.09
2023-02-08T07:14:59.495Z,75.80
2023-02-08T07:17:27.826Z,75.30
2023-02-08T07:19:56.063Z,75.53
2023-02-08T07:22:24.342Z,75.49
2023-02-08T07:24:52.697Z,75.52
2023-02-08T07:27:21.129Z,75.79
2023-02-08T07:29:49.431Z,75.72
2023-02-08T07:32:19.088Z,75.38
2023-02-08T07:34:47.444Z,75.12
2023-02-08T07:37:15.757Z,74.53
2023-02-08T07:39:44.118Z,73.24
2023-02-08T07:42:12.639Z,72.04
2023-02-08T07:44:53.811Z,71.72
2023-02-08T07:47:23.459Z,70.42
2023-02-08T07:49:51.892Z,69.46
2023-02-08T07:52:20.114Z,68.72
2023-02-08T07:54:48.416Z,68.65
2023-02-08T07:57:21.078Z,68.76
2023-02-08T07:59:49.512Z,68.49
2023-02-08T08:02:18.711Z,69.20
2023-02-08T08:04:48.462Z,68.63
2023-02-08T08:07:16.943Z,66.92
2023-02-08T08:09:45.249Z,66.80
2023-02-08T08:12:13.562Z,68.77
2023-02-08T08:14:41.838Z,69.67
2023-02-08T08:17:10.120Z,69.68
2023-02-08T08:19:38.566Z,69.88
2023-02-08T08:22:08.255Z,70.16
2023-02-08T08:24:36.792Z,69.83
2023-02-08T08:27:06.195Z,70.75
2023-02-08T08:29:35.714Z,69.80
2023-02-08T08:32:04.833Z,68.85
2023-02-08T08:34:33.751Z,69.43
2023-02-08T08:37:03.811Z,70.36
2023-02-08T08:39:33.541Z,70.04
2023-02-08T08:42:04.049Z,71.26
2023-02-08T08:44:32.288Z,70.82
2023-02-08T08:47:02.131Z,71.77
2023-02-08T08:49:30.813Z,70.34
2023-02-08T08:51:59.316Z,70.98
2023-02-08T08:54:27.592Z,71.30
2023-02-08T08:56:57.245Z,69.82
2023-02-08T08:59:25.706Z,68.11
2023-02-08T09:01:54.366Z,68.08
2023-02-08T09:04:23.033Z,69.15
2023-02-08T09:06:51.932Z,68.41
2023-02-08T09:09:21.166Z,68.42
2023-02-08T09:11:50.581Z,68.60
2023-02-08T09:14:20.247Z,68.67
2023-02-08T09:16:49.184Z,68.79
2023-02-08T09:19:17.546Z,68.34
2023-02-08T09:21:45.999Z,69.58
2023-02-08T09:24:14.420Z,68.90
2023-02-08T09:26:42.786Z,67.69
2023-02-08T09:29:11.108Z,66.85
2023-02-08T09:31:41.863Z,66.62
2023-02-08T09:34:10.241Z,65.87
2023-02-08T09:36:41.223Z,66.09
2023-02-08T09:39:13.761Z,64.68
2023-02-08T09:42:16.919Z,64.98
2023-02-08T09:45:03.960Z,64.95
2023-02-08T09:47:36.458Z,67.39
2023-02-08T09:50:11.244Z,66.09
2023-02-08T09:52:44.051Z,67.58
2023-02-08T09:55:29.029Z,66.47
2023-02-08T09:57:59.934Z,63.98
2023-02-08T10:00:36.372Z,64.97
2023-02-08T10:03:09.799Z,63.46
2023-02-08T10:05:38.231Z,64.30
2023-02-08T10:08:10.908Z,64.52
2023-02-08T10:10:52.595Z,63.15
2023-02-08T10:13:41.749Z,61.04
2023-02-08T10:16:20.904Z,58.58
2023-02-08T10:19:01.244Z,56.92
2023-02-08T10:21:52.105Z,56.77
2023-02-08T10:25:06.197Z,57.28
2023-02-08T10:27:45.901Z,56.43
2023-02-08T10:30:30.288Z,55.86
2023-02-08T10:33:03.578Z,56.82
2023-02-08T10:35:37.981Z,57.43
2023-02-08T10:38:31.834Z,56.51
2023-02-08T10:41:08.436Z,55.12
2023-02-08T10:43:43.214Z,53.94
2023-02-08T10:46:20.284Z,54.17
2023-02-08T10:49:04.040Z,54.05
2023-02-08T10:51:33.842Z,55.81
2023-02-08T10:54:02.279Z,54.50
2023-02-08T10:56:44.917Z,54.36
2023-02-08T10:59:23.773Z,53.78
2023-02-08T11:01:52.321Z,55.71
2023-02-08T11:04:21.376Z,54.36
2023-02-08T11:06:54.736Z,53.10
2023-02-08T11:09:27.291Z,52.80
2023-02-08T11:11:56.249Z,54.01
2023-02-08T11:14:45.544Z,55.11
2023-02-08T11:17:27.997Z,54.60
2023-02-08T11:19:58.050Z,54.53
2023-02-08T11:22:31.398Z,55.96
2023-02-08T11:25:03.668Z,54.98
2023-02-08T11:27:36.601Z,55.41
2023-02-08T11:30:25.019Z,54.62
2023-02-08T11:33:19.668Z,53.91
2023-02-08T11:36:14.538Z,53.80
2023-02-08T11:38:44.894Z,54.47
2023-02-08T11:41:19.144Z,53.32
2023-02-08T11:44:01.224Z,52.85
2023-02-08T11:46:34.809Z,52.22
2023-02-08T11:49:04.517Z,52.89
2023-02-08T11:51:35.702Z,54.51
2023-02-08T11:54:07.837Z,52.54
2023-02-08T11:56:36.965Z,52.66
2023-02-08T11:59:19.401Z,52.60
2023-02-08T12:01:47.879Z,53.76
2023-02-08T12:04:18.292Z,53.58
2023-02-08T12:07:20.841Z,52.10
2023-02-08T12:10:22.920Z,52.41
2023-02-08T12:13:21.965Z,53.60
2023-02-08T12:16:04.844Z,54.18
2023-02-08T12:18:56.042Z,53.80
2023-02-08T12:21:29.508Z,51.62
2023-02-08T12:24:00.639Z,52.76
2023-02-08T12:26:54.173Z,52.32
2023-02-08T12:29:47.664Z,53.28
2023-02-08T12:32:45.103Z,52.53
2023-02-08T12:35:57.292Z,53.05
2023-02-08T12:39:20.454Z,52.59
2023-02-08T12:42:08.588Z,50.70
2023-02-08T12:44:51.985Z,49.87
2023-02-08T12:47:39.998Z,48.19
2023-02-08T12:50:19.901Z,47.13
2023-02-08T12:52:52.829Z,48.76
2023-02-08T12:55:26.829Z,47.51
2023-02-08T12:58:01.181Z,46.58
2023-02-08T13:00:33.832Z,46.74
2023-02-08T13:03:09.499Z,45.34
2023-02-08T13:05:50.784Z,43.83
2023-02-08T13:08:31.659Z,43.56
2023-02-08T13:11:18.890Z,42.65
2023-02-08T13:13:59.058Z,45.45
2023-02-08T13:16:34.666Z,43.79
2023-02-08T13:19:26.161Z,43.35
2023-02-08T13:21:56.217Z,43.55
2023-02-08T13:24:34.362Z,44.40
2023-02-08T13:27:03.436Z,42.93
2023-02-08T13:29:34.090Z,43.83
2023-02-08T13:32:08.213Z,42.61
2023-02-08T13:34:41.385Z,43.53
2023-02-08T13:37:25.650Z,42.61
2023-02-08T13:40:04.630Z,42.99
2023-02-08T13:42:39.656Z,41.82
2023-02-08T13:45:12.281Z,42.04
2023-02-08T13:47:47.105Z,41.62
2023-02-08T13:50:46.159Z,41.16
2023-02-08T13:53:17.335Z,42.10
2023-02-08T13:55:59.351Z,40.46
2023-02-08T13:58:55.115Z,41.21
2023-02-08T14:01:27.708Z,43.02
2023-02-08T14:04:31.911Z,41.12
2023-02-08T14:07:15.102Z,40.44
2023-02-08T14:10:09.425Z,39.19
2023-02-08T14:12:45.537Z,38.98
2023-02-08T14:15:33.425Z,39.42
2023-02-08T14:18:03.550Z,37.66
2023-02-08T14:20:38.762Z,38.39
2023-02-08T14:23:22.558Z,39.08
2023-02-08T14:25:53.315Z,38.31
2023-02-08T14:28:25.937Z,39.33
2023-02-08T14:30:58.734Z,39.45
2023-02-08T14:33:31.217Z,40.06
2023-02-08T14:36:02.945Z,42.12
2023-02-08T14:38:59.396Z,43.22
2023-02-08T14:42:00.106Z,42.89
2023-02-08T14:45:06.441Z,45.10
2023-02-08T14:47:57.055Z,45.99
2023-02-08T14:50:38.184Z,44.38
2023-02-08T14:53:20.889Z,44.26
2023-02-08T14:55:55.366Z,44.70
2023-02-08T14:58:30.893Z,43.01
2023-02-08T15:01:03.876Z,44.59
2023-02-08T15:03:33.836Z,44.99
2023-02-08T15:06:53.570Z,43.84
2023-02-08T15:09:25.815Z,46.73
2023-02-08T15:12:01.989Z,45.36
2023-02-08T15:14:32.458Z,44.52
2023-02-08T15:17:01.538Z,45.17
2023-02-08T15:19:35.168Z,44.10
2023-02-08T15:22:21.156Z,43.97
2023-02-08T15:24:56.166Z,42.96
2023-02-08T15:27:27.364Z,42.49
2023-02-08T15:29:55.994Z,42.28
2023-02-08T15:32:27.368Z,42.39
2023-02-08T15:34:58.300Z,43.54
2023-02-08T15:37:27.692Z,44.03
2023-02-08T15:39:59.962Z,44.19
2023-02-08T15:42:30.778Z,44.59
2023-02-08T15:45:00.640Z,43.22
2023-02-08T15:47:35.072Z,43.56
2023-02-08T15:50:04.796Z,44.18
2023-02-08T15:52:37.155Z,44.49
2023-02-08T15:55:10.312Z,43.98
2023-02-08T15:57:44.926Z,43.50
2023-02-08T16:00:18.307Z,43.70
2023-02-08T16:02:54.070Z,44.22
2023-02-08T16:05:25.731Z,43.77
2023-02-08T16:07:56.149Z,44.13
2023-02-08T16:10:34.772Z,43.46
2023-02-08T16:13:07.444Z,43.65
2023-02-08T16:15:43.700Z,43.35
2023-02-08T16:18:36.858Z,42.04
2023-02-08T16:21:07.835Z,41.15
2023-02-08T16:23:40.432Z,41.13
2023-02-08T16:26:21.142Z,40.61
2023-02-08T16:28:58.094Z,40.65
2023-02-08T16:31:30.156Z,40.46
2023-02-08T16:34:05.068Z,40.79
2023-02-08T16:36:41.024Z,40.62
2023-02-08T16:39:42.541Z,40.76
2023-02-08T16:42:35.869Z,40.65
2023-02-08T16:45:24.969Z,40.66
2023-02-08T16:47:55.921Z,41.11
2023-02-08T16:50:28.617Z,41.04
2023-02-08T16:53:01.877Z,41.19
2023-02-08T16:55:34.745Z,41.33
2023-02-08T16:58:04.459Z,41.87
2023-02-08T17:00:35.591Z,42.02
2023-02-08T17:03:03.917Z,41.71
2023-02-08T17:05:36.927Z,41.55
2023-02-08T17:08:07.877Z,41.64
2023-02-08T17:10:36.871Z,41.64
2023-02-08T17:13:19.894Z,41.11
2023-02-08T17:15:51.691Z,41.43
2023-02-08T17:18:21.062Z,41.52
2023-02-08T17:20:49.740Z,41.67
2023-02-08T17:23:18.030Z,41.48
2023-02-08T17:25:46.593Z,41.40
2023-02-08T17:28:19.732Z,40.93
2023-02-08T17:30:50.539Z,41.07
2023-02-08T17:33:19.098Z,40.92
2023-02-08T17:35:49.381Z,40.91
2023-02-08T17:38:19.543Z,40.83
2023-02-08T17:40:48.006Z,41.25
2023-02-08T17:43:17.921Z,40.95
2023-02-08T17:45:47.370Z,40.70
2023-02-08T17:48:16.268Z,40.85
2023-02-08T17:50:50.784Z,41.07
2023-02-08T17:53:19.740Z,42.35
2023-02-08T17:55:48.361Z,43.28
2023-02-08T17:58:18.748Z,43.75
2023-02-08T18:00:47.058Z,44.45
2023-02-08T18:03:17.266Z,45.32
2023-02-08T18:05:45.605Z,46.04
2023-02-08T18:08:13.897Z,46.23
2023-02-08T18:10:42.662Z,46.80
2023-02-08T18:13:11.449Z,46.88
2023-02-08T18:15:41.416Z,47.15
2023-02-08T18:18:09.924Z,47.17
2023-02-08T18:20:38.295Z,47.16
2023-02-08T18:23:06.623Z,47.09
2023-02-08T18:25:34.888Z,46.84
2023-02-08T18:28:03.164Z,46.93
2023-02-08T18:30:32.173Z,46.29
2023-02-08T18:33:01.854Z,46.29
2023-02-08T18:35:30.790Z,46.20
2023-02-08T18:37:59.088Z,45.88
2023-02-08T18:40:27.464Z,45.45
2023-02-08T18:42:55.798Z,46.64
2023-02-08T18:45:24.297Z,46.64
2023-02-08T18:47:52.701Z,46.97
2023-02-08T18:50:22.390Z,47.37
2023-02-08T18:52:50.675Z,46.02
2023-02-08T18:55:19.080Z,46.06
2023-02-08T18:57:48.351Z,45.96
2023-02-08T19:00:17.684Z,45.79
2023-02-08T19:02:46.686Z,45.71
2023-02-08T19:05:15.208Z,46.07
2023-02-08T19:07:44.906Z,45.35
2023-02-08T19:10:13.210Z,45.79
2023-02-08T19:12:41.660Z,45.33
2023-02-08T19:15:11.041Z,44.87
2023-02-08T19:17:39.440Z,44.68
2023-02-08T19:20:09.482Z,44.17
2023-02-08T19:22:37.777Z,43.73
2023-02-08T19:25:08.611Z,44.21
2023-02-08T19:27:37.063Z,44.58
2023-02-08T19:30:06.482Z,44.30
2023-02-08T19:32:34.947Z,44.16
2023-02-08T19:35:03.243Z,43.84
2023-02-08T19:37:31.562Z,43.38
2023-02-08T19:40:00.168Z,43.30
2023-02-08T19:42:29.913Z,42.08
2023-02-08T19:44:58.401Z,42.55
2023-02-08T19:47:43.481Z,42.26
2023-02-08T19:50:15.887Z,41.94
2023-02-08T19:52:44.187Z,42.07
2023-02-08T19:55:12.614Z,41.96
2023-02-08T19:57:42.279Z,41.95
2023-02-08T20:00:22.927Z,42.06
2023-02-08T20:02:51.932Z,41.74
2023-02-08T20:05:20.183Z,41.89
2023-02-08T20:07:48.481Z,41.65
2023-02-08T20:10:17.180Z,41.82
2023-02-08T20:12:46.976Z,41.69
2023-02-08T20:15:15.326Z,41.49
2023-02-08T20:17:44.588Z,41.44
2023-02-08T20:20:13.414Z,40.97
2023-02-08T20:22:41.883Z,41.56
2023-02-08T20:25:10.202Z,41.20
2023-02-08T20:27:38.510Z,41.14
2023-02-08T20:30:09.341Z,40.95
2023-02-08T20:32:37.716Z,40.80
2023-02-08T20:35:06.458Z,41.02
2023-02-08T20:37:35.094Z,40.95
2023-02-08T20:40:03.669Z,41.09
2023-02-08T20:42:31.981Z,41.28
2023-02-08T20:45:00.409Z,41.48
2023-02-08T20:47:33.871Z,42.00
2023-02-08T20:50:16.812Z,42.19
2023-02-08T20:52:46.966Z,42.43
2023-02-08T20:55:15.285Z,42.48
2023-02-08T20:57:43.642Z,42.63
2023-02-08T21:00:14.336Z,42.71
2023-02-08T21:02:44.168Z,42.77
2023-02-08T21:05:12.546Z,42.66
2023-02-08T21:07:41.290Z,42.84
2023-02-08T21:10:10.105Z,42.61
2023-02-08T21:12:38.462Z,42.82
2023-02-08T21:15:08.451Z,42.66
2023-02-08T21:17:40.532Z,42.92
2023-02-08T21:20:12.821Z,42.95
2023-02-08T21:22:44.127Z,42.98
2023-02-08T21:25:12.691Z,43.23
2023-02-08T21:27:41.015Z,43.10
2023-02-08T21:30:11.244Z,43.41
2023-02-08T21:32:41.724Z,43.16
2023-02-08T21:35:11.498Z,43.47
2023-02-08T21:37:39.804Z,43.65
2023-02-08T21:40:08.617Z,43.80
2023-02-08T21:42:36.910Z,43.91
2023-02-08T21:45:06.131Z,43.80
2023-02-08T21:47:34.396Z,44.01
2023-02-08T21:50:20.121Z,44.05
2023-02-08T21:53:07.157Z,44.19
2023-02-08T21:55:35.483Z,44.49
2023-02-08T21:58:03.738Z,44.17
2023-02-08T22:00:32.080Z,44.23
2023-02-08T22:03:00.408Z,44.43
2023-02-08T22:05:46.601Z,44.56
2023-02-08T22:08:16.312Z,44.94
2023-02-08T22:10:50.342Z,44.50
2023-02-08T22:13:26.138Z,44.47
2023-02-08T22:15:54.418Z,44.72
2023-02-08T22:18:23.000Z,45.21
2023-02-08T22:20:52.624Z,44.95
2023-02-08T22:23:22.596Z,45.26
2023-02-08T22:25:50.952Z,45.30
2023-02-08T22:28:19.427Z,45.24
2023-02-08T22:30:49.376Z,45.38
2023-02-08T22:33:17.970Z,45.47
2023-02-08T22:35:46.301Z,45.08
2023-02-08T22:38:14.671Z,45.26
2023-02-08T22:40:44.675Z,45.50
2023-02-08T22:43:13.304Z,45.86
2023-02-08T22:45:42.319Z,45.80
2023-02-08T22:48:10.780Z,45.63
2023-02-08T22:50:39.469Z,45.62
2023-02-08T22:53:07.806Z,45.89
2023-02-08T22:55:36.180Z,45.46
2023-02-08T22:58:05.965Z,45.49
2023-02-08T23:00:34.306Z,45.23
2023-02-08T23:03:02.705Z,45.17
2023-02-08T23:05:31.042Z,45.22
2023-02-08T23:07:59.404Z,45.14
2023-02-08T23:10:27.780Z,45.76
2023-02-08T23:12:56.176Z,45.57
2023-02-08T23:15:25.837Z,45.96
2023-02-08T23:17:54.757Z,45.57
2023-02-08T23:20:23.098Z,45.65
2023-02-08T23:22:51.509Z,45.67
2023-02-08T23:25:20.407Z,46.75
2023-02-08T23:27:48.891Z,47.07
2023-02-08T23:30:17.412Z,46.65
2023-02-08T23:32:47.438Z,46.34
2023-02-08T23:35:16.863Z,46.28
2023-02-08T23:37:45.227Z,46.43
2023-02-08T23:40:13.884Z,46.46
2023-02-08T23:42:42.126Z,46.51
2023-02-08T23:45:11.264Z,46.55
2023-02-08T23:47:40.278Z,46.50
2023-02-08T23:50:11.445Z,46.35
2023-02-08T23:52:39.783Z,46.30
2023-02-08T23:55:08.888Z,46.40
2023-02-08T23:57:38.959Z,46.48
